Time;durP1;ratioP1;P1;durP2;ratioP2;P2;SDS_P1;SDS_P2;PMS_P1;PMS_P2;Temp;Humidity;BMP_temperature;BMP_pressure;BME280_temperature;BME280_humidity;BME280_pressure;Samples;Min_cycle;Max_cycle;Signal;HPM_P1;HPM_P2
2024/01/03 00:00:07;;;;;;;8.00;5.10;;;;;;;1.81;75.77;93105.97;521502;28;877;-68
2024/01/03 00:00:25;;;;;;;7.30;4.70;;;;;;;1.81;75.79;93095.84;520996;28;1095;-68
2024/01/03 00:00:43;;;;;;;8.75;5.45;;;;;;;1.84;76.11;93094.81;521492;28;840;-68
2024/01/03 00:00:58;;;;;;;8.95;5.45;;;;;;;1.85;75.10;93101.75;521524;28;900;-68
2024/01/03 00:01:16;;;;;;;8.75;4.82;;;;;;;1.85;75.57;93096.31;519373;28;1557;-68
2024/01/03 00:01:32;;;;;;;9.50;5.03;;;;;;;1.56;75.06;93071.69;519394;28;1015;-68
2024/01/03 00:01:49;;;;;;;8.20;4.93;;;;;;;1.62;75.08;93091.44;521480;28;865;-68
2024/01/03 00:02:05;;;;;;;7.78;5.43;;;;;;;1.49;75.21;93100.88;523323;28;845;-68
2024/01/03 00:02:21;;;;;;;7.78;5.60;;;;;;;1.37;75.18;93101.41;521576;28;858;-68
2024/01/03 00:02:36;;;;;;;7.50;5.90;;;;;;;1.24;75.44;93091.03;521513;28;771;-68
2024/01/03 00:02:52;;;;;;;8.25;6.05;;;;;;;1.12;75.72;93095.03;521352;28;1943;-68
2024/01/03 00:03:07;;;;;;;8.95;6.25;;;;;;;1.06;75.75;93099.00;522676;28;865;-68
2024/01/03 00:03:25;;;;;;;8.50;5.97;;;;;;;1.01;76.29;93092.31;523532;28;830;-68
2024/01/03 00:03:40;;;;;;;10.55;5.93;;;;;;;1.03;76.60;93092.56;523605;28;1125;-68
2024/01/03 00:03:56;;;;;;;12.20;6.45;;;;;;;1.07;76.01;93092.31;523566;28;842;-68
2024/01/03 00:04:19;;;;;;;11.00;6.50;;;;;;;1.11;76.25;93096.25;523633;28;849;-68
2024/01/03 00:04:35;;;;;;;9.32;6.65;;;;;;;1.13;76.04;93099.22;521600;28;953;-68
2024/01/03 00:04:50;;;;;;;9.93;6.83;;;;;;;1.15;76.40;93102.19;521547;28;1006;-68
2024/01/03 00:05:09;;;;;;;11.45;6.80;;;;;;;1.18;76.32;93101.19;521654;28;834;-68
2024/01/03 00:05:33;;;;;;;11.05;6.32;;;;;;;1.23;75.86;93097.00;521691;28;933;-68
2024/01/03 00:05:48;;;;;;;11.85;6.55;;;;;;;1.27;75.83;93102.91;521632;28;905;-68
2024/01/03 00:06:04;;;;;;;12.43;7.50;;;;;;;1.29;75.71;93112.06;521622;28;873;-68
2024/01/03 00:06:20;;;;;;;10.38;7.20;;;;;;;1.32;75.71;93107.59;521758;28;814;-68
2024/01/03 00:06:35;;;;;;;9.40;6.90;;;;;;;1.32;75.64;93108.31;521579;28;774;-68
2024/01/03 00:06:51;;;;;;;10.43;7.30;;;;;;;1.32;76.02;93105.59;521623;28;792;-68
2024/01/03 00:07:06;;;;;;;10.93;8.20;;;;;;;1.35;76.02;93104.63;521663;28;850;-68
2024/01/03 00:07:22;;;;;;;10.70;8.32;;;;;;;1.38;75.76;93098.19;521502;28;778;-67
2024/01/03 00:07:38;;;;;;;11.10;7.50;;;;;;;1.39;75.47;93099.66;521549;28;845;-68
2024/01/03 00:07:53;;;;;;;10.20;7.13;;;;;;;1.40;75.38;93097.69;521398;28;902;-68
2024/01/03 00:08:15;;;;;;;9.88;7.05;;;;;;;1.39;75.85;93094.22;521526;28;811;-68
2024/01/03 00:08:36;;;;;;;11.20;7.15;;;;;;;1.29;75.87;93095.00;524323;28;821;-68
2024/01/03 00:08:51;;;;;;;9.90;6.70;;;;;;;1.22;75.64;93096.25;521418;28;952;-68
2024/01/03 00:09:08;;;;;;;10.40;6.32;;;;;;;1.22;75.85;93096.25;519479;28;846;-68
2024/01/03 00:09:24;;;;;;;11.13;6.72;;;;;;;1.23;75.49;93097.00;521516;28;893;-68
2024/01/03 00:09:39;;;;;;;10.60;6.80;;;;;;;1.25;75.71;93097.97;521488;28;857;-68
2024/01/03 00:09:56;;;;;;;9.80;6.63;;;;;;;1.19;75.79;93096.50;521497;28;853;-69
2024/01/03 00:10:26;;;;;;;10.80;7.05;;;;;;;1.13;75.63;93101.94;521456;28;845;-69
2024/01/03 00:10:42;;;;;;;10.88;6.53;;;;;;;1.15;75.89;93096.75;520318;28;838;-68
2024/01/03 00:10:58;;;;;;;11.80;6.97;;;;;;;1.18;75.76;93095.75;521563;28;920;-68
2024/01/03 00:11:28;;;;;;;10.25;7.18;;;;;;;1.18;75.21;93095.75;521750;28;837;-68
2024/01/03 00:11:45;;;;;;;9.52;6.65;;;;;;;1.23;75.27;93100.47;521570;28;829;-68
2024/01/03 00:12:02;;;;;;;10.52;6.55;;;;;;;1.25;75.71;93102.66;521704;28;909;-68
2024/01/03 00:12:24;;;;;;;11.95;6.88;;;;;;;1.15;75.36;93085.88;521678;28;1640;-68
2024/01/03 00:12:39;;;;;;;10.77;7.05;;;;;;;1.29;75.39;93106.63;521708;28;918;-68
2024/01/03 00:12:55;;;;;;;9.90;6.53;;;;;;;1.33;75.44;93106.34;521652;28;794;-68
2024/01/03 00:13:37;;;;;;;9.70;6.38;;;;;;;1.33;75.28;93109.81;521646;28;1082;-68
2024/01/03 00:14:07;;;;;;;8.40;5.78;;;;;;;1.32;75.43;93102.88;521626;28;869;-68
2024/01/03 00:14:25;;;;;;;8.93;6.53;;;;;;;1.33;75.70;93109.81;521551;28;900;-68
2024/01/03 00:14:41;;;;;;;9.00;6.45;;;;;;;1.32;75.13;93102.88;521683;28;849;-69
2024/01/03 00:14:56;;;;;;;10.40;6.70;;;;;;;1.34;75.49;93102.41;521627;28;834;-68
2024/01/03 00:16:07;;;;;;;8.47;5.93;;;;;;;1.25;75.19;93100.69;521584;28;870;-68
2024/01/03 00:16:23;;;;;;;9.48;6.40;;;;;;;1.18;75.59;93106.63;513178;28;863;-68
2024/01/03 00:16:41;;;;;;;10.13;6.22;;;;;;;1.15;75.84;93110.34;513250;28;1558;-68
2024/01/03 00:17:06;;;;;;;13.93;6.18;;;;;;;1.12;75.61;93110.59;513183;28;808;-68
2024/01/03 00:17:22;;;;;;;10.27;5.68;;;;;;;1.08;75.91;93113.56;513142;28;863;-68
2024/01/03 00:17:37;;;;;;;9.65;5.57;;;;;;;1.06;76.46;93109.88;513319;28;803;-68
2024/01/03 00:17:53;;;;;;;10.37;5.87;;;;;;;1.05;76.55;93111.84;513184;28;764;-68
2024/01/03 00:18:34;;;;;;;10.70;6.30;;;;;;;1.02;76.54;93117.53;513282;28;866;-68
2024/01/03 00:18:58;;;;;;;9.48;6.50;;;;;;;0.98;76.83;93117.00;515274;28;830;-68
2024/01/03 00:19:21;;;;;;;9.45;6.85;;;;;;;0.97;76.83;93116.28;515283;28;822;-68
2024/01/03 00:19:39;;;;;;;10.77;7.18;;;;;;;0.86;77.15;93104.69;515220;28;893;-68
2024/01/03 00:19:55;;;;;;;12.57;8.45;;;;;;;1.04;77.05;93117.78;515167;28;886;-68
2024/01/03 00:20:11;;;;;;;9.93;7.15;;;;;;;1.05;77.01;93114.56;515300;28;794;-68
2024/01/03 00:20:27;;;;;;;12.10;7.20;;;;;;;1.08;77.28;93115.53;515253;28;886;-68
2024/01/03 00:20:42;;;;;;;15.25;8.57;;;;;;;1.10;77.03;93116.53;515243;28;1151;-68
2024/01/03 00:20:58;;;;;;;13.53;8.97;;;;;;;1.14;76.95;93121.72;515234;28;806;-68
2024/01/03 00:21:17;;;;;;;10.95;7.90;;;;;;;1.16;77.05;93119.25;515232;28;763;-68
2024/01/03 00:21:33;;;;;;;9.82;7.15;;;;;;;1.15;76.95;93107.63;515148;28;969;-69
2024/01/03 00:21:49;;;;;;;11.07;7.38;;;;;;;1.21;76.42;93111.06;515222;28;795;-69
2024/01/03 00:22:04;;;;;;;12.57;8.25;;;;;;;1.24;76.57;93120.22;516505;28;1040;-69
2024/01/03 00:22:20;;;;;;;12.33;8.37;;;;;;;1.26;76.22;93118.47;521670;28;834;-69
2024/01/03 00:22:35;;;;;;;12.32;8.15;;;;;;;1.29;76.42;93111.31;521668;28;775;-69
2024/01/03 00:22:51;;;;;;;14.60;8.70;;;;;;;1.29;75.93;93117.50;521610;28;794;-69
2024/01/03 00:23:06;;;;;;;17.17;8.43;;;;;;;1.24;76.21;93115.53;521614;28;1922;-68
2024/01/03 00:23:25;;;;;;;14.82;7.55;;;;;;;1.24;76.18;93115.53;521431;28;881;-68
2024/01/03 00:23:48;;;;;;;10.60;7.47;;;;;;;1.23;75.87;93114.06;521551;28;821;-68
2024/01/03 00:24:05;;;;;;;11.43;7.60;;;;;;;1.18;75.97;93114.78;521382;28;956;-68
2024/01/03 00:24:20;;;;;;;12.68;8.02;;;;;;;1.15;76.32;93115.78;521522;28;845;-68
2024/01/03 00:24:45;;;;;;;15.67;9.83;;;;;;;1.19;76.25;93108.09;521517;28;928;-68
2024/01/03 00:25:00;;;;;;;21.83;12.60;;;;;;;1.23;76.11;93114.06;521476;28;901;-68
2024/01/03 00:25:16;;;;;;;19.30;10.60;;;;;;;1.26;76.55;93118.47;521487;28;837;-68
2024/01/03 00:25:32;;;;;;;15.52;8.02;;;;;;;1.28;76.36;93107.84;521536;28;778;-68
2024/01/03 00:25:47;;;;;;;13.45;7.00;;;;;;;1.29;75.68;93106.63;521613;28;827;-68
2024/01/03 00:26:06;;;;;;;10.13;6.82;;;;;;;1.33;75.87;93106.34;521645;28;806;-68
2024/01/03 00:26:23;;;;;;;8.73;6.25;;;;;;;1.36;75.36;93111.56;521624;28;877;-68
2024/01/03 00:26:40;;;;;;;9.20;6.18;;;;;;;1.38;75.22;93111.06;521722;28;822;-68
2024/01/03 00:26:55;;;;;;;8.68;6.03;;;;;;;1.40;75.46;93111.28;521499;28;916;-68
2024/01/03 00:27:11;;;;;;;10.00;6.43;;;;;;;1.41;75.66;93110.03;521693;28;798;-68
2024/01/03 00:27:27;;;;;;;10.40;6.07;;;;;;;1.45;75.18;93102.38;522765;28;1121;-68
2024/01/03 00:27:42;;;;;;;8.43;5.73;;;;;;;1.48;74.96;93106.81;523764;28;762;-68
2024/01/03 00:27:59;;;;;;;8.97;6.17;;;;;;;1.49;75.25;93106.31;524109;28;877;-68
2024/01/03 00:28:15;;;;;;;8.98;6.30;;;;;;;1.51;75.37;93105.84;524051;28;845;-68
2024/01/03 00:28:31;;;;;;;10.17;6.57;;;;;;;1.51;75.04;93103.84;524136;28;798;-68
2024/01/03 00:28:47;;;;;;;10.68;7.03;;;;;;;1.54;75.30;93108.28;524065;28;913;-68
2024/01/03 00:29:16;;;;;;;10.37;7.33;;;;;;;1.56;75.30;93101.63;524178;28;833;-68
2024/01/03 00:29:52;;;;;;;12.48;7.93;;;;;;;1.55;75.79;93109.03;524044;28;885;-68
2024/01/03 00:30:08;;;;;;;12.95;7.15;;;;;;;1.56;75.25;93107.06;524061;28;873;-68
2024/01/03 00:30:24;;;;;;;15.10;7.13;;;;;;;1.57;75.14;93098.38;524142;28;801;-68
2024/01/03 00:30:39;;;;;;;11.50;6.60;;;;;;;1.60;75.26;93102.09;524092;28;861;-68
2024/01/03 00:30:55;;;;;;;9.97;6.20;;;;;;;1.62;75.30;93094.16;524077;28;770;-68
2024/01/03 00:31:33;;;;;;;10.55;6.60;;;;;;;1.60;75.33;93099.38;523980;28;1093;-68
2024/01/03 00:31:48;;;;;;;12.95;6.80;;;;;;;1.52;75.30;93102.59;515465;28;1509;-69
2024/01/03 00:32:06;;;;;;;11.50;6.63;;;;;;;1.51;75.27;93092.97;518743;28;2200;-68
2024/01/03 00:32:22;;;;;;;10.43;6.20;;;;;;;1.51;75.89;93095.69;523789;28;944;-68
2024/01/03 00:32:38;;;;;;;10.23;6.00;;;;;;;1.52;75.73;93094.44;524001;28;846;-69
2024/01/03 00:32:53;;;;;;;9.93;6.23;;;;;;;1.56;75.56;93098.91;523841;28;1069;-69
2024/01/03 00:33:09;;;;;;;9.43;6.00;;;;;;;1.56;75.82;93096.19;524073;28;842;-69
2024/01/03 00:33:24;;;;;;;8.43;5.40;;;;;;;1.57;75.51;93100.34;524120;28;861;-69
2024/01/03 00:33:41;;;;;;;8.07;5.47;;;;;;;1.56;75.89;93096.91;524171;28;818;-68
2024/01/03 00:33:57;;;;;;;8.50;5.57;;;;;;;1.53;75.41;93097.91;523904;28;873;-68
2024/01/03 00:34:39;;;;;;;8.13;5.45;;;;;;;1.50;75.49;93094.19;523916;28;881;-68
2024/01/03 00:34:56;;;;;;;9.43;5.40;;;;;;;1.53;75.97;93095.94;523814;28;877;-68
2024/01/03 00:35:12;;;;;;;12.15;5.57;;;;;;;1.57;75.77;93097.63;521773;28;885;-68
2024/01/03 00:35:27;;;;;;;10.25;5.45;;;;;;;1.58;75.83;93099.13;521904;28;771;-68
2024/01/03 00:35:43;;;;;;;7.82;5.25;;;;;;;1.57;75.03;93092.19;521879;28;924;-68
2024/01/03 00:35:58;;;;;;;7.57;5.40;;;;;;;1.56;75.87;93096.19;523918;28;857;-68
2024/01/03 00:36:15;;;;;;;8.50;5.43;;;;;;;1.56;75.16;93107.06;523912;28;869;-68
2024/01/03 00:36:32;;;;;;;8.70;5.35;;;;;;;1.57;75.29;93098.38;523742;28;948;-68
2024/01/03 00:36:48;;;;;;;7.60;4.93;;;;;;;1.60;75.17;93102.09;523956;28;897;-68
2024/01/03 00:37:17;;;;;;;6.95;4.30;;;;;;;1.61;75.46;93101.59;523933;28;905;-68
2024/01/03 00:37:33;;;;;;;9.90;5.07;;;;;;;1.64;75.62;93097.88;524112;28;901;-68
2024/01/03 00:37:49;;;;;;;10.00;5.22;;;;;;;1.64;75.50;93097.88;523933;28;884;-68
2024/01/03 00:38:04;;;;;;;8.87;5.37;;;;;;;1.67;75.59;93104.31;523864;28;801;-68
2024/01/03 00:38:20;;;;;;;9.27;6.00;;;;;;;1.68;75.47;93103.81;521869;28;832;-68
2024/01/03 00:38:38;;;;;;;9.83;6.60;;;;;;;1.69;75.43;93101.81;521862;28;924;-68
2024/01/03 00:38:53;;;;;;;15.40;8.70;;;;;;;1.71;75.33;93104.78;521790;28;821;-68
2024/01/03 00:39:10;;;;;;;14.23;8.93;;;;;;;1.71;75.75;93096.63;521843;28;873;-68
2024/01/03 00:39:27;;;;;;;12.18;7.85;;;;;;;1.68;75.43;93092.91;521783;28;876;-68
2024/01/03 00:39:42;;;;;;;13.02;8.15;;;;;;;1.51;75.63;93095.69;522930;28;897;-68
2024/01/03 00:39:58;;;;;;;11.52;6.28;;;;;;;1.46;75.48;93096.44;523964;28;766;-68
2024/01/03 00:40:33;;;;;;;8.97;4.53;;;;;;;1.34;76.08;93100.41;523947;28;797;-68
2024/01/03 00:40:53;;;;;;;8.43;4.57;;;;;;;1.35;76.36;93098.44;523698;28;1769;-68
2024/01/03 00:41:09;;;;;;;8.05;5.00;;;;;;;1.36;76.03;93105.38;523954;28;849;-69
2024/01/03 00:41:25;;;;;;;9.30;5.18;;;;;;;1.38;76.53;93097.44;523853;28;844;-68
2024/01/03 00:41:40;;;;;;;11.17;5.20;;;;;;;1.37;76.41;93090.53;523957;28;1117;-68
2024/01/03 00:41:57;;;;;;;12.68;5.00;;;;;;;1.42;76.27;93101.41;523831;28;904;-68
2024/01/03 00:42:12;;;;;;;12.88;4.82;;;;;;;1.39;76.15;93096.94;523855;28;885;-69
2024/01/03 00:42:28;;;;;;;13.95;5.20;;;;;;;1.35;75.50;93101.91;523915;28;774;-68
2024/01/03 00:42:43;;;;;;;11.13;5.23;;;;;;;1.36;76.43;93102.66;523990;28;967;-68
2024/01/03 00:42:58;;;;;;;10.55;5.05;;;;;;;1.37;76.27;93096.72;523855;28;1917;-68
2024/01/03 00:43:14;;;;;;;10.40;4.97;;;;;;;1.39;76.09;93102.38;524086;28;824;-68
2024/01/03 00:43:30;;;;;;;8.82;4.70;;;;;;;1.37;75.92;93095.97;524000;28;790;-69
2024/01/03 00:43:45;;;;;;;11.07;5.00;;;;;;;1.25;76.36;93100.69;523976;28;866;-69
2024/01/03 00:44:00;;;;;;;10.55;5.38;;;;;;;1.17;76.25;93096.25;524114;28;765;-69
2024/01/03 00:44:16;;;;;;;12.23;5.63;;;;;;;1.07;76.97;93092.31;524096;28;892;-69
2024/01/03 00:44:31;;;;;;;12.75;5.35;;;;;;;0.99;77.09;93094.78;524061;28;860;-69
2024/01/03 00:44:47;;;;;;;11.10;5.43;;;;;;;0.95;77.22;93088.13;524044;28;793;-69
2024/01/03 00:45:03;;;;;;;10.47;5.53;;;;;;;0.93;77.33;93093.31;524062;28;856;-68
2024/01/03 00:45:18;;;;;;;8.90;5.63;;;;;;;0.92;77.61;93097.25;524091;28;885;-68
2024/01/03 00:45:34;;;;;;;13.40;6.23;;;;;;;0.91;77.88;93091.06;524095;28;852;-68
2024/01/03 00:45:50;;;;;;;13.17;6.17;;;;;;;0.95;77.89;93104.44;524060;28;820;-68
2024/01/03 00:46:07;;;;;;;8.82;6.10;;;;;;;0.97;77.97;93099.25;524094;28;924;-68
2024/01/03 00:46:22;;;;;;;10.50;6.20;;;;;;;1.00;77.84;93098.97;524038;28;873;-68
2024/01/03 00:46:38;;;;;;;15.40;5.73;;;;;;;1.03;77.69;93103.44;524101;28;766;-68
2024/01/03 00:46:54;;;;;;;13.60;5.60;;;;;;;1.08;78.00;93102.69;524011;28;900;-68
2024/01/03 00:47:09;;;;;;;8.55;5.55;;;;;;;1.11;77.78;93101.69;524024;28;852;-68
2024/01/03 00:47:25;;;;;;;8.30;5.23;;;;;;;1.13;77.63;93101.94;524091;28;848;-69
2024/01/03 00:47:41;;;;;;;8.05;5.30;;;;;;;1.16;77.43;93106.38;524079;28;785;-69
2024/01/03 00:47:56;;;;;;;7.25;5.00;;;;;;;1.21;77.41;93102.91;524025;28;781;-69
2024/01/03 00:48:12;;;;;;;6.97;4.90;;;;;;;1.24;77.44;93106.63;523911;28;797;-69
2024/01/03 00:48:27;;;;;;;7.03;4.87;;;;;;;1.26;76.77;93098.69;523933;28;873;-69
2024/01/03 00:48:43;;;;;;;7.65;4.60;;;;;;;1.27;76.68;93100.94;523756;28;880;-69
2024/01/03 00:48:59;;;;;;;8.52;4.90;;;;;;;1.25;76.90;93100.69;523791;28;841;-69
2024/01/03 00:49:15;;;;;;;7.63;5.40;;;;;;;1.26;76.39;93101.41;523935;28;873;-68
2024/01/03 00:49:30;;;;;;;7.22;5.40;;;;;;;1.27;76.47;93103.66;523937;28;785;-68
2024/01/03 00:49:47;;;;;;;7.77;5.23;;;;;;;1.27;76.27;93103.66;523910;28;774;-68
2024/01/03 00:50:03;;;;;;;9.82;5.30;;;;;;;1.27;76.83;93105.63;523939;28;841;-68
2024/01/03 00:50:18;;;;;;;11.73;5.10;;;;;;;1.27;76.49;93114.53;524045;28;825;-68
2024/01/03 00:50:34;;;;;;;12.60;5.53;;;;;;;1.28;76.61;93115.25;524057;28;793;-68
2024/01/03 00:50:49;;;;;;;10.35;5.40;;;;;;;1.25;76.21;93108.84;524086;28;778;-68
2024/01/03 00:51:05;;;;;;;8.57;5.03;;;;;;;1.26;76.19;93113.03;524060;28;912;-68
2024/01/03 00:51:20;;;;;;;8.27;5.03;;;;;;;1.25;76.28;93108.09;524085;28;813;-68
2024/01/03 00:51:36;;;;;;;8.37;5.30;;;;;;;1.27;76.61;93106.38;524016;28;786;-68
2024/01/03 00:51:52;;;;;;;9.68;5.82;;;;;;;1.29;76.67;93109.34;523976;28;825;-68
2024/01/03 00:52:08;;;;;;;9.55;5.85;;;;;;;1.31;76.18;93103.41;524028;28;782;-68
2024/01/03 00:52:23;;;;;;;11.05;5.25;;;;;;;1.30;76.19;93097.22;524056;28;848;-68
2024/01/03 00:52:39;;;;;;;11.90;4.97;;;;;;;1.33;75.74;93103.63;524030;28;852;-68
2024/01/03 00:52:54;;;;;;;8.68;4.45;;;;;;;1.20;76.21;93098.72;524046;28;801;-68
2024/01/03 00:53:11;;;;;;;7.03;4.37;;;;;;;1.06;76.53;93094.28;524007;28;782;-68
2024/01/03 00:53:27;;;;;;;5.90;4.30;;;;;;;1.09;76.26;93106.88;524056;28;912;-68
2024/01/03 00:53:42;;;;;;;6.05;4.22;;;;;;;1.01;76.85;93102.44;523995;28;1096;-68
2024/01/03 00:53:57;;;;;;;6.83;4.40;;;;;;;0.99;76.76;93104.91;524073;28;790;-68
2024/01/03 00:54:14;;;;;;;9.60;4.80;;;;;;;0.83;76.90;93092.81;523887;28;858;-69
2024/01/03 00:54:32;;;;;;;9.48;4.95;;;;;;;0.91;76.71;93104.66;523828;28;943;-69
2024/01/03 00:54:48;;;;;;;8.18;5.15;;;;;;;0.92;76.85;93106.16;521840;28;834;-69
2024/01/03 00:55:04;;;;;;;9.45;5.32;;;;;;;0.96;77.03;93106.66;521812;28;790;-68
2024/01/03 00:55:20;;;;;;;8.52;5.10;;;;;;;0.98;77.07;93103.44;521895;28;889;-68
2024/01/03 00:55:35;;;;;;;6.55;4.55;;;;;;;1.00;76.99;93106.38;521864;28;865;-68
2024/01/03 00:55:51;;;;;;;6.37;4.53;;;;;;;1.00;76.66;93109.09;521828;28;837;-68
2024/01/03 00:56:06;;;;;;;6.90;4.75;;;;;;;1.02;76.67;93103.94;522820;28;931;-68
2024/01/03 00:56:22;;;;;;;8.47;4.67;;;;;;;1.08;76.57;93110.09;523888;28;774;-69
2024/01/03 00:56:37;;;;;;;8.07;4.63;;;;;;;1.10;76.53;93110.34;522683;28;785;-69
2024/01/03 00:56:53;;;;;;;6.03;4.40;;;;;;;1.11;76.72;93109.09;523829;28;813;-69
2024/01/03 00:57:09;;;;;;;7.22;4.53;;;;;;;1.09;76.84;93104.16;523866;28;837;-69
2024/01/03 00:57:24;;;;;;;11.07;5.00;;;;;;;1.09;76.79;93109.59;523821;28;864;-68
2024/01/03 00:57:40;;;;;;;10.50;4.93;;;;;;;1.10;76.97;93105.66;523923;28;794;-68
2024/01/03 00:57:55;;;;;;;6.72;4.60;;;;;;;1.10;76.55;93100.22;521807;28;797;-69
2024/01/03 00:58:11;;;;;;;5.80;4.20;;;;;;;1.12;76.72;93107.88;521796;28;833;-69
2024/01/03 00:58:27;;;;;;;5.95;4.35;;;;;;;1.13;76.77;93103.91;522263;28;864;-69
2024/01/03 00:58:42;;;;;;;6.25;4.53;;;;;;;1.15;76.94;93101.47;521767;28;786;-69
2024/01/03 00:58:58;;;;;;;7.80;4.67;;;;;;;1.16;76.38;93102.94;521789;28;975;-69
2024/01/03 00:59:14;;;;;;;7.23;4.53;;;;;;;1.16;76.76;93106.38;521815;28;762;-69
2024/01/03 00:59:32;;;;;;;5.95;4.13;;;;;;;1.18;76.45;93100.44;521784;28;881;-68
2024/01/03 00:59:48;;;;;;;8.27;4.32;;;;;;;1.15;76.60;93096.75;521864;28;888;-68
2024/01/03 01:00:04;;;;;;;11.80;4.87;;;;;;;1.17;76.32;93096.25;519677;28;794;-68
2024/01/03 01:00:20;;;;;;;8.57;4.70;;;;;;;1.17;76.40;93104.41;520772;28;928;-68
2024/01/03 01:00:36;;;;;;;6.50;4.00;;;;;;;1.16;76.32;93097.47;522701;28;877;-68
2024/01/03 01:00:52;;;;;;;6.00;3.92;;;;;;;1.16;76.57;93098.22;523818;28;845;-68
2024/01/03 01:01:08;;;;;;;5.93;4.27;;;;;;;1.15;76.31;93096.75;521869;28;822;-69
2024/01/03 01:01:23;;;;;;;7.05;4.93;;;;;;;1.15;76.51;93090.59;519742;28;794;-68
2024/01/03 01:01:40;;;;;;;7.60;4.78;;;;;;;1.14;76.61;93089.84;519906;28;813;-68
2024/01/03 01:01:57;;;;;;;7.20;4.57;;;;;;;1.15;76.02;93098.75;520587;28;871;-68
2024/01/03 01:02:12;;;;;;;6.85;4.40;;;;;;;1.17;76.19;93096.25;521785;28;814;-68
2024/01/03 01:02:28;;;;;;;6.50;4.22;;;;;;;1.16;76.05;93092.78;521852;28;853;-68
2024/01/03 01:02:45;;;;;;;8.07;4.53;;;;;;;1.12;75.96;93086.13;521808;28;955;-68
2024/01/03 01:03:00;;;;;;;8.70;4.55;;;;;;;1.10;76.22;93091.31;522674;28;1981;-68
2024/01/03 01:03:17;;;;;;;6.40;4.10;;;;;;;1.10;76.46;93099.47;523878;28;758;-68
2024/01/03 01:03:32;;;;;;;5.35;3.92;;;;;;;1.09;76.63;93093.28;523825;28;1160;-68
2024/01/03 01:03:48;;;;;;;7.13;4.10;;;;;;;1.07;76.31;93093.06;523995;28;786;-68
2024/01/03 01:04:03;;;;;;;6.37;4.07;;;;;;;1.08;76.52;93099.97;524066;28;790;-68
2024/01/03 01:04:19;;;;;;;5.97;4.28;;;;;;;1.05;76.70;93094.78;524574;28;1096;-68
2024/01/03 01:04:34;;;;;;;10.07;4.63;;;;;;;1.05;76.60;93100.97;526023;28;774;-68
2024/01/03 01:04:50;;;;;;;10.00;4.80;;;;;;;1.07;76.60;93095.78;526127;28;1041;-68
2024/01/03 01:05:06;;;;;;;6.93;4.70;;;;;;;1.09;76.87;93098.72;525882;28;853;-68
2024/01/03 01:05:21;;;;;;;7.22;4.72;;;;;;;1.11;76.55;93098.97;525943;28;826;-68
2024/01/03 01:05:37;;;;;;;8.38;4.80;;;;;;;1.13;76.56;93096.50;523703;28;1285;-68
2024/01/03 01:05:52;;;;;;;8.87;4.23;;;;;;;1.13;76.37;93101.19;523735;28;873;-68
2024/01/03 01:06:08;;;;;;;7.80;4.28;;;;;;;1.12;76.44;93102.44;523859;28;853;-68
2024/01/03 01:06:23;;;;;;;10.87;4.87;;;;;;;1.13;76.83;93101.19;521996;28;853;-69
2024/01/03 01:06:41;;;;;;;11.00;4.82;;;;;;;1.14;76.35;93100.72;521826;28;798;-69
2024/01/03 01:06:56;;;;;;;8.85;4.50;;;;;;;1.16;76.66;93100.22;522411;28;877;-69
2024/01/03 01:07:12;;;;;;;7.60;4.55;;;;;;;1.17;76.40;93102.41;523799;28;1011;-68
2024/01/03 01:07:27;;;;;;;7.93;4.87;;;;;;;1.18;76.44;93105.88;524506;28;926;-68
2024/01/03 01:07:43;;;;;;;7.85;4.90;;;;;;;1.16;77.03;93106.38;525997;28;920;-68
2024/01/03 01:07:58;;;;;;;8.80;5.10;;;;;;;1.14;76.65;93098.00;525905;28;876;-68
2024/01/03 01:08:14;;;;;;;8.07;5.07;;;;;;;1.11;76.90;93106.38;526014;28;868;-68
2024/01/03 01:08:29;;;;;;;6.27;4.63;;;;;;;1.10;77.07;93100.22;526019;28;932;-68
2024/01/03 01:08:45;;;;;;;6.65;4.40;;;;;;;1.09;77.13;93096.00;526081;28;806;-68
2024/01/03 01:09:03;;;;;;;7.40;4.67;;;;;;;1.07;77.16;93095.78;526072;28;817;-68
2024/01/03 01:09:19;;;;;;;7.55;4.93;;;;;;;1.01;77.41;93100.47;526142;28;1731;-68
2024/01/03 01:09:34;;;;;;;8.07;5.23;;;;;;;1.02;77.87;93099.22;526045;28;837;-68
2024/01/03 01:09:50;;;;;;;8.43;5.60;;;;;;;1.04;77.63;93101.47;526005;28;806;-68
2024/01/03 01:10:06;;;;;;;9.40;5.93;;;;;;;1.06;77.44;93096.28;525912;28;864;-68
2024/01/03 01:10:21;;;;;;;9.70;5.30;;;;;;;1.09;78.00;93098.72;525897;28;865;-68
2024/01/03 01:10:37;;;;;;;9.93;5.00;;;;;;;1.13;77.59;93104.66;525969;28;924;-69
2024/01/03 01:10:52;;;;;;;9.77;5.03;;;;;;;1.16;78.12;93106.38;525851;28;817;-69
2024/01/03 01:11:08;;;;;;;9.07;5.15;;;;;;;1.20;77.86;93098.72;525917;28;830;-68
2024/01/03 01:11:23;;;;;;;7.40;5.30;;;;;;;1.23;77.73;93099.72;525932;28;761;-68
2024/01/03 01:11:38;;;;;;;10.52;5.60;;;;;;;1.26;77.85;93099.44;526027;28;872;-68
2024/01/03 01:11:54;;;;;;;12.90;5.73;;;;;;;1.28;77.53;93099.69;526098;28;927;-68
2024/01/03 01:12:09;;;;;;;12.25;6.13;;;;;;;1.30;77.25;93099.94;526118;28;865;-68
2024/01/03 01:12:25;;;;;;;15.63;7.33;;;;;;;1.35;77.59;93098.44;526039;28;813;-68
2024/01/03 01:12:40;;;;;;;11.35;6.45;;;;;;;1.36;77.44;93097.97;526142;28;1072;-68
2024/01/03 01:12:56;;;;;;;9.13;5.80;;;;;;;1.39;77.29;93098.91;526043;28;817;-68
2024/01/03 01:13:11;;;;;;;9.75;5.78;;;;;;;1.38;77.39;93103.63;526126;28;777;-68
2024/01/03 01:13:27;;;;;;;7.90;5.47;;;;;;;1.41;77.17;93101.88;526146;28;801;-68
2024/01/03 01:13:42;;;;;;;8.38;5.85;;;;;;;1.41;76.90;93099.16;526080;28;889;-68
2024/01/03 01:13:58;;;;;;;17.20;8.97;;;;;;;1.41;76.95;93096.44;526041;28;852;-68
2024/01/03 01:14:13;;;;;;;23.65;11.68;;;;;;;1.44;76.43;93100.91;526161;28;769;-68
2024/01/03 01:14:29;;;;;;;21.70;10.93;;;;;;;1.44;76.36;93098.19;526121;28;762;-68
2024/01/03 01:14:44;;;;;;;18.80;10.17;;;;;;;1.44;76.38;93098.19;526118;28;789;-68
2024/01/03 01:15:00;;;;;;;19.58;11.80;;;;;;;1.44;76.13;93095.44;526125;28;762;-68
2024/01/03 01:15:16;;;;;;;25.35;15.00;;;;;;;1.42;76.07;93098.69;526100;28;876;-68
2024/01/03 01:15:31;;;;;;;32.67;16.25;;;;;;;1.42;76.29;93109.56;526105;28;952;-68
2024/01/03 01:15:47;;;;;;;35.60;17.53;;;;;;;1.42;76.13;93093.25;526079;28;825;-68
2024/01/03 01:16:02;;;;;;;37.97;20.07;;;;;;;1.41;75.60;93102.63;526056;28;877;-68
2024/01/03 01:16:18;;;;;;;35.92;19.27;;;;;;;1.39;75.96;93094.22;526111;28;885;-68
2024/01/03 01:16:33;;;;;;;30.23;16.73;;;;;;;1.39;76.07;93091.50;526011;28;799;-68
2024/01/03 01:16:49;;;;;;;25.05;14.75;;;;;;;1.40;75.84;93103.13;525820;28;865;-68
2024/01/03 01:17:04;;;;;;;23.03;13.63;;;;;;;1.38;75.53;93098.19;525942;28;798;-68
2024/01/03 01:17:20;;;;;;;20.65;12.07;;;;;;;1.37;75.92;93095.97;525908;28;961;-68
2024/01/03 01:17:35;;;;;;;18.27;10.73;;;;;;;1.37;76.13;93098.69;525937;28;856;-68
2024/01/03 01:17:50;;;;;;;17.25;10.15;;;;;;;1.32;75.63;93092.00;525933;28;877;-68
2024/01/03 01:18:06;;;;;;;15.37;9.23;;;;;;;1.27;75.78;93094.75;525850;28;778;-68
2024/01/03 01:18:21;;;;;;;15.10;9.52;;;;;;;1.17;76.13;93086.09;525922;28;884;-68
2024/01/03 01:18:38;;;;;;;18.00;10.90;;;;;;;1.05;75.97;93092.81;525958;28;821;-68
2024/01/03 01:18:54;;;;;;;18.23;10.82;;;;;;;1.01;76.41;93089.59;525928;28;841;-69
2024/01/03 01:19:09;;;;;;;18.17;10.50;;;;;;;0.99;76.83;93094.06;525922;28;876;-68
2024/01/03 01:19:24;;;;;;;18.60;10.75;;;;;;;0.93;77.06;93088.63;525883;28;848;-69
2024/01/03 01:19:40;;;;;;;18.07;11.07;;;;;;;0.88;77.19;93092.09;525928;28;762;-69
2024/01/03 01:19:56;;;;;;;17.38;10.70;;;;;;;0.89;77.08;93098.25;525825;28;913;-69
2024/01/03 01:20:11;;;;;;;14.00;9.17;;;;;;;0.85;77.12;93087.63;525999;28;786;-69
2024/01/03 01:20:26;;;;;;;13.15;8.43;;;;;;;0.87;77.12;93093.31;525929;28;845;-69
2024/01/03 01:20:42;;;;;;;12.50;8.00;;;;;;;0.84;77.59;93094.31;525830;28;865;-68
2024/01/03 01:20:57;;;;;;;12.23;7.70;;;;;;;0.85;77.30;93092.31;525803;28;821;-68
2024/01/03 01:21:13;;;;;;;12.23;7.40;;;;;;;0.83;77.58;93095.53;525920;28;848;-68
2024/01/03 01:21:28;;;;;;;11.02;6.93;;;;;;;0.82;77.30;93099.50;525941;28;789;-68
2024/01/03 01:21:44;;;;;;;10.83;6.90;;;;;;;0.77;77.52;93097.53;525870;28;829;-68
2024/01/03 01:21:59;;;;;;;10.60;6.83;;;;;;;0.66;77.60;93100.97;525880;28;964;-68
2024/01/03 01:22:14;;;;;;;9.95;6.50;;;;;;;0.57;77.99;93105.91;525937;28;773;-68
2024/01/03 01:22:30;;;;;;;8.20;5.73;;;;;;;0.51;78.37;93103.19;525875;28;789;-68
2024/01/03 01:22:45;;;;;;;8.10;5.78;;;;;;;0.49;78.32;93107.63;525859;28;865;-68
2024/01/03 01:23:01;;;;;;;10.07;6.40;;;;;;;0.49;78.70;93107.63;525812;28;1914;-68
2024/01/03 01:23:16;;;;;;;10.82;6.38;;;;;;;0.50;79.11;93100.94;525922;28;793;-68